메인 페이지
METAR-TAF:

METAR-TAF

공항 :

푸앵트누아르, 콩고

위도: 04-49S, 경도: 011-54E, 고도: 17m

현재 날씨관측

예보는 48분 전, 09:00시(UTC)에 발표되었습니다.
6kt
온도 27°C
습도 84%
기압 1012 hPa
시정 10km 이상
고도 1000ft 상공 구름 보통
고도 2000ft 상공 흐림
고도 3000ft 상공 구름 조금, 적란운.

METAR: FCPP 180900Z 10006KT 9999 SCT010 OVC020 FEW030CB 27/24 Q1012 TEMPO BKN010 OVC020 FEW030CB

시각: 10:48 (09:48 UTC)

예보

예보는 4 시간 48분 전, 05:00시(UTC)에 발표되었습니다.
예보 대상 시간: 18일 06시부터 19일 06시까지 (UTC)
남남동4kt
시정: 8000m
고도 2000ft 상공 구름 많음
고도 3000ft 상공 구름 조금, 적란운.
뇌우
전환 중
18일 07시부터 18일 09시까지 (UTC)
고도 2300ft 상공 구름 보통
전환 중
18일 12시부터 18일 14시까지 (UTC)
고도 2300ft 상공 구름 보통
고도 3000ft 상공 구름 조금, 적란운.

TAF: FCPP 180500Z 1806/1906 15004KT 8000 TS BKN020 FEW030CB BECMG 1807/1809 NSW SCT023 BECMG 1812/1814 SCT023 FEW030CB

4,000개 이상의 공항 관측 자료 및 예보 (METAR 및 TAF 보고).

지도상에서 검색 가능한 기상관측소가 노란 점과 빨간 점으로 표시되어 있습니다.

기상관측소 명을 보려면 표시 위로 마우스를 이동하세요.

날씨 관측과 예보를 보려면 클릭하세요.

지도 변경 : 확대하려면 엑스 표시가 있는 녹색 버튼, 축소하려면 빼기 표시가 있는 녹색 버튼, 다음 페이지의 지도를 보려면 녹색 화살표를 클릭하세요.


METAR-TAF: